Abbott, NM

3:23 PM MDT on May 25, 2015 (GMT -0600)
Raton Municipal-Crews | | Change Station
CLOSE
Current Station
Airport
Location: Raton,
Elevation: 6352 ft
Nearby Weather Stations

Elev 6352 ft 36.74 °N, 104.50 °W | Updated 21 minutes ago

Overcast
Overcast
55 °F
Feels Like 55 °F
N
15
Wind Variable Wind from NE

Today
High -- | Low -- °F
--% Chance of Precip.
Yesterday
High -- | Low -- °F
Precip. -- in
5:44 AM 8:04 PM
First Quarter, 52% visible
Pressure 29.98 in
Visibility 10.0 miles
Clouds Mostly Cloudy 6000 ft
Overcast 8000 ft
Dew Point 44 °F
Humidity 67%
Rainfall 0.01 in
Snow Depth Not available.
UV 3 out of 12
Pollen 7.20 out of 12
Air Quality Not available.
Flu Activity Local Activity
SPECI KRTN 252102Z AUTO 05013KT 10SM -RA BKN060 OVC080 13/07 A2998 RMK AO2 LTG DSNT NE AND E AND W P0000 T01280067

More Conditions Fewer Conditions

Pressure 29.98 in
Visibility 10.0 miles
Clouds Mostly Cloudy 6000 ft
Overcast 8000 ft
Dew Point 44 °F
Humidity 67%
Rainfall 0.01 in
Snow Depth Not available.
UV 3 out of 12
Pollen 7.20 out of 12
Air Quality Not available.
Flu Activity Local Activity
SPECI KRTN 252102Z AUTO 05013KT 10SM -RA BKN060 OVC080 13/07 A2998 RMK AO2 LTG DSNT NE AND E AND W P0000 T01280067

More Conditions Fewer Conditions

Nowcast | as of 2:04 PM MDT on May 25, 2015

Isolated to scattered showers and thunderstorms will continue to develop across portions of central to north central New Mexico through the afternoon. Storms will become more numerous in adjacent areas by the late afternoon. Storms will drift to the east at about 15 to 20 mph...producing brief downpours...erratic wind gusts to 45 mph...small hail...and deadly cloud to ground lightning. Rainfall amounts will generally range from a few hundredths of an inch to two tenths of an inch...but some stronger storms will be capable of producing higher amounts of three to six tenths of an inch in localized areas.

×

10-Day Weather Forecast

Almanac

Astronomy

May. 25, 2015 Rise Set
Actual Time
Civil Twilight
Nautical Twilight
Astronomical Twilight
Moon
Length of Visible Light
Length of Day
Tomorrow will be .
, % of the Moon is Illuminated

Today's Extremes

State Highs State Lows

Community

WunderPhotos

Upload Photos

1,824,138 photos uploaded!

WunderBlogs® & News

Nearby

Air Quality

  Air Quality AQ Index Pollutant
Not available.

Snow Depth

Station Depth Elevation

Earthquake Activity

City Distance Mag. Time & Date
Minimum magnitude displayed is 2.5.

Coastal Water Temperatures

Place Temperature

Stations

Nearby Weather Stations

Station Location Temp. Windchill Dew Point Humidity Wind Precip. Elev Updated Type